CYHY

Hay River / Merlyn Carter Airport

Hay River, Northwest Territories, Canada
METAR CYHY 171200Z 15011G17KT 15SM SCT056 BKN230 M13/M16 A2959 RMK SC3CI2 SLP038
Observed Flight Rules
Dec-17 @ 12:00 UTC (an hour ago) Visual Flight Rules
Wind Visibility Clouds
150° at 11 knots
 Gusting to 17 knots
15 miles
  • Scattered at 5,600' AGL
  • Broken at 23,000' AGL
Temperatures Readings
Current -13°C / 9°F
Dewpoint -16°C / 3°F
Humidity 78%
Altimeter 29.59" Hg
Pressure 1003.8 hPa
Elevation 166
METAR CYHY 171200Z 15011G17KT 15SM SCT056 BKN230 M13/M16 A2959 RMK SC3CI2 SLP038
Observed Flight Rules
Dec-17 @ 12:00 UTC
(an hour ago)
VFR
Wind Visibility
150° at 11 knots
 Gusting to 17 knots
15 miles
Clouds
  • Scattered at 5,600' AGL
  • Broken at 23,000' AGL
Temperature Dewpoint
-13°C / 9°F -16°C / 3°F
Humidity Altimeter Pressure
78% 29.59" Hg 1003.8 hPa